Aviation Digital Data Service (ADDS)

Output produced by METARs form (1829 UTC 06 February 2016)
found at http://aviationweather.gov/adds/metars/
 
KFAY 061738Z 0618/0718 03005KT P6SM SCT050 OVC120 
     FM070600 02008KT 6SM -RA SCT030 OVC070 
     FM070900 01013KT 4SM -RASN OVC025 
     FM071500 01016G23KT 4SM -RA BR OVC025